Cheetham Hill, United Kingdom
Current Conditions -  °F | °C
As of 9:50 AM on Saturday 25 Oct 2014 (Local Time) from EGCC Reporting Station
Rain Showers Rain Showers  
Wind Chill:   Ceiling: 2800
Heat Index:   Visibility: 6mi
Dew Point:   Wind: 14mph
Humidity: 100%   Direction: 190°S
Pressure: 29.94"   Gusts: NA
Location:  53.5°N, 2.24°W
Report Text: EGCC 250850Z 19012KT 9999 VCSH FEW015 BKN028 09/09 Q1014 NOSIG
Loading
Personal Weather Stations






























Interactive Weather Map
Tropical Storm Tracking
New forecast layout! Learn more

10-Day Weather Forecast

Advertisements
Track Severe Weather on mobile